createdAt,value
2022-11-28T00:01:44.705Z,5.47
2022-11-28T00:04:13.891Z,5.85
2022-11-28T00:06:47.099Z,5.70
2022-11-28T00:09:17.268Z,5.18
2022-11-28T00:11:48.481Z,7.75
2022-11-28T00:14:18.716Z,5.18
2022-11-28T00:16:48.009Z,6.22
2022-11-28T00:19:16.465Z,8.20
2022-11-28T00:21:44.847Z,5.32
2022-11-28T00:24:13.404Z,5.45
2022-11-28T00:26:42.538Z,5.50
2022-11-28T00:29:11.520Z,5.50
2022-11-28T00:31:42.809Z,5.68
2022-11-28T00:34:13.753Z,5.10
2022-11-28T00:36:44.823Z,5.35
2022-11-28T00:39:14.022Z,5.88
2022-11-28T00:41:43.256Z,6.15
2022-11-28T00:44:12.579Z,5.85
2022-11-28T00:46:41.011Z,5.90
2022-11-28T00:49:09.507Z,5.35
2022-11-28T00:51:38.277Z,5.00
2022-11-28T00:54:07.026Z,5.53
2022-11-28T00:56:38.682Z,4.40
2022-11-28T00:59:07.405Z,5.22
2022-11-28T01:01:43.963Z,5.18
2022-11-28T01:04:14.846Z,5.78
2022-11-28T01:06:45.717Z,4.28
2022-11-28T01:09:17.876Z,6.78
2022-11-28T01:14:21.651Z,5.57
2022-11-28T01:16:50.326Z,5.43
2022-11-28T01:19:19.114Z,6.32
2022-11-28T01:21:47.924Z,7.43
2022-11-28T01:24:16.496Z,4.97
2022-11-28T01:26:44.903Z,5.78
2022-11-28T01:29:13.337Z,5.25
2022-11-28T01:31:42.307Z,5.00
2022-11-28T01:34:10.759Z,5.60
2022-11-28T01:36:39.250Z,5.25
2022-11-28T01:39:07.896Z,5.63
2022-11-28T01:41:36.552Z,3.95
2022-11-28T01:44:07.902Z,4.13
2022-11-28T01:46:36.774Z,5.47
2022-11-28T01:49:17.260Z,3.15
2022-11-28T01:51:50.842Z,4.03
2022-11-28T01:54:22.511Z,3.65
2022-11-28T01:56:56.946Z,3.83
2022-11-28T01:59:30.380Z,3.22
2022-11-28T02:01:58.953Z,3.90
2022-11-28T02:04:28.302Z,4.20
2022-11-28T02:06:57.027Z,4.03
2022-11-28T02:09:25.505Z,3.58
2022-11-28T02:12:03.836Z,3.35
2022-11-28T02:14:41.096Z,2.60
2022-11-28T02:17:12.725Z,4.40
2022-11-28T02:19:53.120Z,2.73
2022-11-28T02:22:24.355Z,3.22
2022-11-28T02:25:08.693Z,2.80
2022-11-28T02:27:56.411Z,4.20
2022-11-28T02:31:02.510Z,4.70
2022-11-28T02:33:33.816Z,3.42
2022-11-28T02:36:12.636Z,3.33
2022-11-28T02:38:57.716Z,3.60
2022-11-28T02:42:04.588Z,4.00
2022-11-28T02:44:47.530Z,4.15
2022-11-28T02:47:25.799Z,3.70
2022-11-28T02:49:57.483Z,3.35
2022-11-28T02:52:34.806Z,4.93
2022-11-28T02:55:04.850Z,3.85
2022-11-28T02:57:49.948Z,3.20
2022-11-28T03:00:26.013Z,4.05
2022-11-28T03:03:09.996Z,2.97
2022-11-28T03:05:42.819Z,3.35
2022-11-28T03:08:42.550Z,2.83
2022-11-28T03:11:24.366Z,3.17
2022-11-28T03:14:04.469Z,5.35
2022-11-28T03:16:51.421Z,3.47
2022-11-28T03:19:32.773Z,3.08
2022-11-28T03:22:35.635Z,3.15
2022-11-28T03:25:19.376Z,4.45
2022-11-28T03:28:12.958Z,2.95
2022-11-28T03:30:48.301Z,3.38
2022-11-28T03:33:21.231Z,3.40
2022-11-28T03:35:56.804Z,3.22
2022-11-28T03:38:34.469Z,3.72
2022-11-28T03:41:12.907Z,2.97
2022-11-28T03:43:46.326Z,4.80
2022-11-28T03:46:18.699Z,4.10
2022-11-28T03:48:51.751Z,3.70
2022-11-28T03:51:24.707Z,5.20
2022-11-28T03:54:14.019Z,3.65
2022-11-28T03:56:55.704Z,4.15
2022-11-28T03:59:40.861Z,4.03
2022-11-28T04:02:37.293Z,4.13
2022-11-28T04:05:22.586Z,4.20
2022-11-28T04:08:02.244Z,4.15
2022-11-28T04:10:38.699Z,3.28
2022-11-28T04:13:21.449Z,4.07
2022-11-28T04:16:08.618Z,3.67
2022-11-28T04:18:47.314Z,3.33
2022-11-28T04:21:28.552Z,3.67
2022-11-28T04:24:02.668Z,4.47
2022-11-28T04:26:37.197Z,3.90
2022-11-28T04:29:11.223Z,4.03
2022-11-28T04:31:43.533Z,4.60
2022-11-28T04:34:16.300Z,3.90
2022-11-28T04:36:46.123Z,5.88
2022-11-28T04:39:19.491Z,5.32
2022-11-28T04:42:00.015Z,3.78
2022-11-28T04:44:37.780Z,4.50
2022-11-28T04:47:06.908Z,3.15
2022-11-28T04:49:35.313Z,3.92
2022-11-28T04:52:09.837Z,3.67
2022-11-28T04:54:42.753Z,4.38
2022-11-28T04:57:17.264Z,3.83
2022-11-28T04:59:47.004Z,4.03
2022-11-28T05:02:17.710Z,4.95
2022-11-28T05:04:46.108Z,3.88
2022-11-28T05:07:14.558Z,4.45
2022-11-28T05:09:42.990Z,4.25
2022-11-28T05:12:11.510Z,3.33
2022-11-28T05:14:41.128Z,4.10
2022-11-28T05:17:12.708Z,5.63
2022-11-28T05:19:41.149Z,4.65
2022-11-28T05:22:09.703Z,4.07
2022-11-28T05:24:38.131Z,4.38
2022-11-28T05:27:07.727Z,3.65
2022-11-28T05:29:36.093Z,3.53
2022-11-28T05:32:04.690Z,4.25
2022-11-28T05:34:33.205Z,4.05
2022-11-28T05:37:02.257Z,4.05
2022-11-28T05:39:31.323Z,3.60
2022-11-28T05:41:59.819Z,3.65
2022-11-28T05:44:28.196Z,4.00
2022-11-28T05:46:56.648Z,3.60
2022-11-28T05:49:26.257Z,3.30
2022-11-28T05:51:54.729Z,3.72
2022-11-28T05:54:23.181Z,4.55
2022-11-28T05:56:51.626Z,4.70
2022-11-28T05:59:20.033Z,3.90
2022-11-28T06:01:48.471Z,3.63
2022-11-28T06:04:17.026Z,3.83
2022-11-28T06:06:45.435Z,3.97
2022-11-28T06:09:13.987Z,3.47
2022-11-28T06:11:42.491Z,3.90
2022-11-28T06:14:11.451Z,4.60
2022-11-28T06:16:41.254Z,5.28
2022-11-28T06:19:13.380Z,3.95
2022-11-28T06:21:42.160Z,4.32
2022-11-28T06:24:10.898Z,5.75
2022-11-28T06:26:39.275Z,4.80
2022-11-28T06:29:07.724Z,5.10
2022-11-28T06:31:36.303Z,4.00
2022-11-28T06:34:04.850Z,4.63
2022-11-28T06:36:33.342Z,5.18
2022-11-28T06:39:01.739Z,6.50
2022-11-28T06:41:30.454Z,4.28
2022-11-28T06:43:58.948Z,4.88
2022-11-28T06:46:27.512Z,4.60
2022-11-28T06:48:56.031Z,4.60
2022-11-28T06:51:24.400Z,5.72
2022-11-28T06:53:54.186Z,6.35
2022-11-28T06:56:22.924Z,5.10
2022-11-28T06:58:56.186Z,5.78
2022-11-28T07:01:27.890Z,5.05
2022-11-28T07:03:57.197Z,4.80
2022-11-28T07:06:27.031Z,5.15
2022-11-28T07:08:57.577Z,6.65
2022-11-28T07:11:31.540Z,4.95
2022-11-28T07:14:03.101Z,7.00
2022-11-28T07:16:33.045Z,5.97
2022-11-28T07:19:01.656Z,6.68
2022-11-28T07:21:30.637Z,8.73
2022-11-28T07:24:00.049Z,7.47
2022-11-28T07:26:28.803Z,7.47
2022-11-28T07:28:59.646Z,6.63
2022-11-28T07:31:32.013Z,6.90
2022-11-28T07:34:03.535Z,6.68
2022-11-28T07:36:32.495Z,7.55
2022-11-28T07:39:03.090Z,7.88
2022-11-28T07:41:31.621Z,8.38
2022-11-28T07:44:02.282Z,8.10
2022-11-28T07:46:32.557Z,6.90
2022-11-28T07:49:01.444Z,7.55
2022-11-28T07:51:32.443Z,9.30
2022-11-28T07:54:02.848Z,8.05
2022-11-28T07:57:04.500Z,8.80
2022-11-28T07:59:22.779Z,8.35
2022-11-28T08:01:53.508Z,8.85
2022-11-28T08:04:22.902Z,9.00
2022-11-28T08:06:51.360Z,10.80
2022-11-28T08:09:19.823Z,9.13
2022-11-28T08:11:48.315Z,8.68
2022-11-28T08:14:16.743Z,9.10
2022-11-28T08:16:46.616Z,8.85
2022-11-28T08:19:15.398Z,9.43
2022-11-28T08:21:43.830Z,8.82
2022-11-28T08:24:12.272Z,10.35
2022-11-28T08:26:40.656Z,9.95
2022-11-28T08:29:09.976Z,10.65
2022-11-28T08:31:40.006Z,8.18
2022-11-28T08:34:10.750Z,8.32
2022-11-28T08:36:39.702Z,9.68
2022-11-28T08:39:24.953Z,9.98
2022-11-28T08:41:57.287Z,8.48
2022-11-28T08:44:27.311Z,9.38
2022-11-28T08:46:55.827Z,8.05
2022-11-28T08:49:24.241Z,11.75
2022-11-28T08:51:53.629Z,8.20
2022-11-28T08:54:22.159Z,8.35
2022-11-28T08:56:51.594Z,10.52
2022-11-28T08:59:20.040Z,9.88
2022-11-28T09:01:48.521Z,8.90
2022-11-28T09:04:18.551Z,8.75
2022-11-28T09:06:47.134Z,9.55
2022-11-28T09:09:15.598Z,8.30
2022-11-28T09:11:50.411Z,8.35
2022-11-28T09:14:19.885Z,7.15
2022-11-28T09:16:48.449Z,7.40
2022-11-28T09:19:16.946Z,9.30
2022-11-28T09:21:45.383Z,7.53
2022-11-28T09:24:16.646Z,8.80
2022-11-28T09:26:45.126Z,7.03
2022-11-28T09:29:13.535Z,9.73
2022-11-28T09:31:46.971Z,9.82
2022-11-28T09:34:16.167Z,7.78
2022-11-28T09:36:44.704Z,10.60
2022-11-28T09:39:13.115Z,9.52
2022-11-28T09:41:58.174Z,9.60
2022-11-28T09:44:32.814Z,8.32
2022-11-28T09:47:06.486Z,8.48
2022-11-28T09:49:46.345Z,8.40
2022-11-28T09:53:03.270Z,7.65
2022-11-28T09:55:40.202Z,8.10
2022-11-28T09:58:47.381Z,7.35
2022-11-28T10:01:18.580Z,8.75
2022-11-28T10:03:59.410Z,7.85
2022-11-28T10:06:41.323Z,8.55
2022-11-28T10:09:31.399Z,8.25
2022-11-28T10:12:27.660Z,9.30
2022-11-28T10:15:33.098Z,7.85
2022-11-28T10:18:13.727Z,10.20
2022-11-28T10:20:45.708Z,8.35
2022-11-28T10:23:30.219Z,10.30
2022-11-28T10:26:26.914Z,9.40
2022-11-28T10:28:57.851Z,9.93
2022-11-28T10:31:41.742Z,10.00
2022-11-28T10:34:15.898Z,9.93
2022-11-28T10:37:27.135Z,10.40
2022-11-28T10:39:56.766Z,11.63
2022-11-28T10:42:39.947Z,9.35
2022-11-28T10:45:34.758Z,10.35
2022-11-28T10:48:41.788Z,11.15
2022-11-28T10:51:15.721Z,12.40
2022-11-28T10:53:56.435Z,10.52
2022-11-28T10:56:40.648Z,11.18
2022-11-28T10:59:27.224Z,12.02
2022-11-28T11:01:57.191Z,12.65
2022-11-28T11:04:27.658Z,11.18
2022-11-28T11:07:16.138Z,13.55
2022-11-28T11:09:47.408Z,16.25
2022-11-28T11:12:21.644Z,14.38
2022-11-28T11:14:50.269Z,12.27
2022-11-28T11:17:36.157Z,13.43
2022-11-28T11:20:34.624Z,16.27
2022-11-28T11:23:24.114Z,14.50
2022-11-28T11:25:54.499Z,15.80
2022-11-28T11:28:27.927Z,29.38
2022-11-28T11:31:02.423Z,14.30
2022-11-28T11:33:37.666Z,15.35
2022-11-28T11:36:21.271Z,17.40
2022-11-28T11:38:49.766Z,19.23
2022-11-28T11:41:29.846Z,15.48
2022-11-28T11:44:29.360Z,16.60
2022-11-28T11:47:03.501Z,17.67
2022-11-28T11:49:34.983Z,19.67
2022-11-28T11:52:15.520Z,18.42
2022-11-28T11:54:46.927Z,16.23
2022-11-28T11:57:32.553Z,20.95
2022-11-28T12:00:08.132Z,21.73
2022-11-28T12:02:47.332Z,18.25
2022-11-28T12:05:19.609Z,20.75
2022-11-28T12:10:30.965Z,21.88
2022-11-28T12:12:59.653Z,17.23
2022-11-28T12:15:41.207Z,24.15
2022-11-28T12:18:30.329Z,18.38
2022-11-28T12:21:10.971Z,19.85
2022-11-28T12:23:55.820Z,21.38
2022-11-28T12:26:49.982Z,21.17
2022-11-28T12:29:45.639Z,19.75
2022-11-28T12:32:29.561Z,19.55
2022-11-28T12:35:11.527Z,16.52
2022-11-28T12:38:12.467Z,22.35
2022-11-28T12:41:14.624Z,26.30
2022-11-28T12:44:20.762Z,19.63
2022-11-28T12:47:10.981Z,20.40
2022-11-28T12:49:59.208Z,21.60
2022-11-28T12:52:47.141Z,21.60
2022-11-28T12:55:27.740Z,23.00
2022-11-28T12:58:23.419Z,18.17
2022-11-28T13:01:12.178Z,22.05
2022-11-28T13:04:10.724Z,23.50
2022-11-28T13:06:54.117Z,19.83
2022-11-28T13:09:35.385Z,24.45
2022-11-28T13:12:26.735Z,23.00
2022-11-28T13:15:00.010Z,21.98
2022-11-28T13:17:40.730Z,18.60
2022-11-28T13:20:45.669Z,22.35
2022-11-28T13:23:23.789Z,23.85
2022-11-28T13:26:15.550Z,22.45
2022-11-28T13:28:56.063Z,19.80
2022-11-28T13:31:31.370Z,23.65
2022-11-28T13:34:00.728Z,20.75
2022-11-28T13:39:52.813Z,24.27
2022-11-28T13:43:10.815Z,19.77
2022-11-28T13:45:44.642Z,22.60
2022-11-28T13:49:13.307Z,20.83
2022-11-28T13:51:32.044Z,19.42
2022-11-28T13:54:22.588Z,23.13
2022-11-28T13:57:22.113Z,19.83
2022-11-28T13:59:57.774Z,23.63
2022-11-28T14:02:34.711Z,24.13
2022-11-28T14:05:05.030Z,18.58
2022-11-28T14:07:34.048Z,21.77
2022-11-28T14:10:10.240Z,22.48
2022-11-28T14:12:54.340Z,20.08
2022-11-28T14:15:31.465Z,19.92
2022-11-28T14:18:54.506Z,23.75
2022-11-28T14:21:37.831Z,18.08
2022-11-28T14:24:51.157Z,26.90
2022-11-28T14:27:27.720Z,25.60
2022-11-28T14:29:57.805Z,22.85
2022-11-28T14:32:42.232Z,23.42
2022-11-28T14:35:52.024Z,21.02
2022-11-28T14:38:34.564Z,20.20
2022-11-28T14:41:11.978Z,20.40
2022-11-28T14:43:44.658Z,22.80
2022-11-28T14:46:16.201Z,20.10
2022-11-28T14:48:59.864Z,24.95
2022-11-28T14:51:47.327Z,21.70
2022-11-28T14:54:18.822Z,20.90
2022-11-28T14:56:48.307Z,20.80
2022-11-28T14:59:17.671Z,25.70
2022-11-28T15:02:07.501Z,17.73
2022-11-28T15:04:42.049Z,23.95
2022-11-28T15:07:32.580Z,22.23
2022-11-28T15:10:13.243Z,21.13
2022-11-28T15:13:16.693Z,19.02
2022-11-28T15:15:49.478Z,22.38
2022-11-28T15:18:20.073Z,20.48
2022-11-28T15:20:55.210Z,21.98
2022-11-28T15:23:25.774Z,20.60
2022-11-28T15:25:58.022Z,21.48
2022-11-28T15:28:32.415Z,22.70
2022-11-28T15:31:05.599Z,19.42
2022-11-28T15:33:34.415Z,20.73
2022-11-28T15:36:16.984Z,21.88
2022-11-28T15:38:46.473Z,22.05
2022-11-28T15:41:21.727Z,21.05
2022-11-28T15:43:50.789Z,21.92
2022-11-28T15:46:23.533Z,19.90
2022-11-28T15:48:52.833Z,18.08
2022-11-28T15:51:32.732Z,22.48
2022-11-28T15:54:05.005Z,21.05
2022-11-28T15:56:34.753Z,16.77
2022-11-28T15:59:03.158Z,16.23
2022-11-28T16:01:32.808Z,18.55
2022-11-28T16:04:10.491Z,19.48
2022-11-28T16:06:43.042Z,17.30
2022-11-28T16:09:17.614Z,18.70
2022-11-28T16:11:52.165Z,21.90
2022-11-28T16:14:44.720Z,20.80
2022-11-28T16:17:19.563Z,18.00
2022-11-28T16:19:51.431Z,18.83
2022-11-28T16:22:22.299Z,17.45
2022-11-28T16:24:55.263Z,16.33
2022-11-28T16:27:35.949Z,18.17
2022-11-28T16:30:27.109Z,15.63
2022-11-28T16:32:56.625Z,20.20
2022-11-28T16:35:40.261Z,19.63
2022-11-28T16:38:25.195Z,17.83
2022-11-28T16:41:01.082Z,15.45
2022-11-28T16:43:40.423Z,14.70
2022-11-28T16:46:19.851Z,18.67
2022-11-28T16:48:53.854Z,19.80
2022-11-28T16:51:22.247Z,18.00
2022-11-28T16:53:53.257Z,19.38
2022-11-28T16:56:30.931Z,20.90
2022-11-28T16:59:19.153Z,17.90
2022-11-28T17:01:52.452Z,21.35
2022-11-28T17:04:29.130Z,17.70
2022-11-28T17:07:01.757Z,19.67
2022-11-28T17:09:30.522Z,20.48
2022-11-28T17:12:11.025Z,19.95
2022-11-28T17:14:39.540Z,20.73
2022-11-28T17:17:14.781Z,21.13
2022-11-28T17:19:44.204Z,19.23
2022-11-28T17:22:25.742Z,17.45
2022-11-28T17:24:59.589Z,14.90
2022-11-28T17:27:28.243Z,15.18
2022-11-28T17:29:56.640Z,20.15
2022-11-28T17:32:25.162Z,20.77
2022-11-28T17:34:53.783Z,16.63
2022-11-28T17:37:22.155Z,15.63
2022-11-28T17:40:09.295Z,13.98
2022-11-28T17:42:38.653Z,18.52
2022-11-28T17:45:14.896Z,17.40
2022-11-28T17:47:43.283Z,19.98
2022-11-28T17:50:11.841Z,17.15
2022-11-28T17:52:40.469Z,13.18
2022-11-28T17:55:08.912Z,15.70
2022-11-28T17:57:37.507Z,19.10
2022-11-28T18:00:07.936Z,19.90
2022-11-28T18:02:36.337Z,17.52
2022-11-28T18:05:05.299Z,18.92
2022-11-28T18:07:33.846Z,22.33
2022-11-28T18:10:03.988Z,18.38
2022-11-28T18:12:32.397Z,18.05
2022-11-28T18:15:01.428Z,18.00
2022-11-28T18:17:29.853Z,19.55
2022-11-28T18:19:58.203Z,16.42
2022-11-28T18:22:26.597Z,18.95
2022-11-28T18:24:54.956Z,19.05
2022-11-28T18:27:24.456Z,17.23
2022-11-28T18:29:52.945Z,19.00
2022-11-28T18:32:21.352Z,17.33
2022-11-28T18:34:49.807Z,17.95
2022-11-28T18:37:18.352Z,19.25
2022-11-28T18:39:46.813Z,16.73
2022-11-28T18:42:15.473Z,21.00
2022-11-28T18:44:43.847Z,16.65
2022-11-28T18:47:12.377Z,17.58
2022-11-28T18:49:40.904Z,19.67
2022-11-28T18:52:09.766Z,17.08
2022-11-28T18:54:38.524Z,18.45
2022-11-28T18:57:08.058Z,19.15
2022-11-28T18:59:36.509Z,16.98
2022-11-28T19:02:05.062Z,20.25
2022-11-28T19:04:33.521Z,20.73
2022-11-28T19:07:03.886Z,18.45
2022-11-28T19:09:32.779Z,22.13
2022-11-28T19:12:01.199Z,17.15
2022-11-28T19:14:29.793Z,23.23
2022-11-28T19:16:58.392Z,19.23
2022-11-28T19:19:26.905Z,22.05
2022-11-28T19:21:55.914Z,22.85
2022-11-28T19:24:24.298Z,22.13
2022-11-28T19:26:52.730Z,23.45
2022-11-28T19:29:21.253Z,24.55
2022-11-28T19:31:49.702Z,18.60
2022-11-28T19:34:19.018Z,27.45
2022-11-28T19:36:50.076Z,26.48
2022-11-28T19:39:22.039Z,21.00
2022-11-28T19:41:52.914Z,23.48
2022-11-28T19:44:23.995Z,22.30
2022-11-28T19:46:53.436Z,18.98
2022-11-28T19:49:23.410Z,20.92
2022-11-28T19:51:55.567Z,21.08
2022-11-28T19:56:52.844Z,22.70
2022-11-28T19:59:21.332Z,19.08
2022-11-28T20:01:50.068Z,21.45
2022-11-28T20:04:20.223Z,20.85
2022-11-28T20:06:48.695Z,25.55
2022-11-28T20:09:17.095Z,24.90
2022-11-28T20:11:45.661Z,26.02
2022-11-28T20:14:18.341Z,22.70
2022-11-28T20:16:47.236Z,20.83
2022-11-28T20:19:17.780Z,22.67
2022-11-28T20:21:46.579Z,21.95
2022-11-28T20:24:15.553Z,21.48
2022-11-28T20:26:44.454Z,22.33
2022-11-28T20:29:15.904Z,31.30
2022-11-28T20:31:46.433Z,25.45
2022-11-28T20:34:17.794Z,29.70
2022-11-28T20:36:51.104Z,24.73
2022-11-28T20:39:19.798Z,26.52
2022-11-28T20:41:49.228Z,26.33
2022-11-28T20:44:18.734Z,27.45
2022-11-28T20:46:49.444Z,23.40
2022-11-28T20:49:18.343Z,22.70
2022-11-28T20:51:47.386Z,25.02
2022-11-28T20:54:16.031Z,21.75
2022-11-28T20:57:19.629Z,20.90
2022-11-28T20:59:33.585Z,20.45
2022-11-28T21:02:02.102Z,22.65
2022-11-28T21:04:31.388Z,23.35
2022-11-28T21:06:59.848Z,23.90
2022-11-28T21:09:28.234Z,20.02
2022-11-28T21:11:59.215Z,23.02
2022-11-28T21:14:29.487Z,24.70
2022-11-28T21:16:58.807Z,24.13
2022-11-28T21:19:27.316Z,22.77
2022-11-28T21:21:55.749Z,22.52
2022-11-28T21:24:24.259Z,29.90
2022-11-28T21:26:54.345Z,25.98
2022-11-28T21:29:24.385Z,30.98
2022-11-28T21:31:53.504Z,25.10
2022-11-28T21:34:22.824Z,28.02
2022-11-28T21:36:51.209Z,35.78
2022-11-28T21:39:20.532Z,37.63
2022-11-28T21:41:50.819Z,24.05
2022-11-28T21:44:20.343Z,27.05
2022-11-28T21:46:48.856Z,27.25
2022-11-28T21:49:17.372Z,37.28
2022-11-28T21:51:45.856Z,34.47
2022-11-28T21:54:14.230Z,24.27
2022-11-28T21:56:42.728Z,38.70
2022-11-28T21:59:11.206Z,29.73
2022-11-28T22:01:39.673Z,28.60
2022-11-28T22:04:09.845Z,21.70
2022-11-28T22:06:38.306Z,30.88
2022-11-28T22:09:09.414Z,25.60
2022-11-28T22:11:39.004Z,23.58
2022-11-28T22:14:07.605Z,28.92
2022-11-28T22:16:36.056Z,48.30
2022-11-28T22:19:04.553Z,28.90
2022-11-28T22:24:21.823Z,27.75
2022-11-28T22:26:50.417Z,28.45
2022-11-28T22:29:18.891Z,23.65
2022-11-28T22:31:47.371Z,25.90
2022-11-28T22:34:15.758Z,29.60
2022-11-28T22:36:44.172Z,24.08
2022-11-28T22:39:12.573Z,25.23
2022-11-28T22:41:41.168Z,24.70
2022-11-28T22:44:10.818Z,27.95
2022-11-28T22:46:39.639Z,21.90
2022-11-28T22:49:09.529Z,24.23
2022-11-28T22:51:38.599Z,23.17
2022-11-28T22:54:07.067Z,65.28
2022-11-28T22:56:35.578Z,43.72
2022-11-28T22:59:05.026Z,20.23
2022-11-28T23:01:34.273Z,25.88
2022-11-28T23:04:03.062Z,25.30
2022-11-28T23:06:34.534Z,20.08
2022-11-28T23:09:07.912Z,22.92
2022-11-28T23:11:38.744Z,24.65
2022-11-28T23:14:07.634Z,23.00
2022-11-28T23:16:39.430Z,24.27
2022-11-28T23:19:14.286Z,24.52
2022-11-28T23:21:44.996Z,24.17
2022-11-28T23:24:16.274Z,25.02
2022-11-28T23:26:44.815Z,22.43
2022-11-28T23:29:14.322Z,20.23
2022-11-28T23:31:44.169Z,21.98
2022-11-28T23:34:13.280Z,24.50
2022-11-28T23:36:44.765Z,23.13
2022-11-28T23:39:19.057Z,21.38
2022-11-28T23:41:48.144Z,24.60
2022-11-28T23:44:18.195Z,21.50
2022-11-28T23:46:48.116Z,21.92
2022-11-28T23:49:16.864Z,23.92
2022-11-28T23:51:46.293Z,20.90
2022-11-28T23:54:14.764Z,22.92
2022-11-28T23:56:43.467Z,23.27
2022-11-28T23:59:13.066Z,23.05
